Time;durP1;ratioP1;P1;durP2;ratioP2;P2;SDS_P1;SDS_P2;PMS_P1;PMS_P2;Temp;Humidity;BMP_temperature;BMP_pressure;BME280_temperature;BME280_humidity;BME280_pressure;Samples;Min_cycle;Max_cycle;Signal;HPM_P1;HPM_P2
2020/12/10 00:00:01;;;;;;;13.23;7.72;;;;;;;;;;5094317;28;20035;-85
2020/12/10 00:02:28;;;;;;;15.15;7.95;;;;;;;;;;5094188;28;20020;-84
2020/12/10 00:04:55;;;;;;;14.75;8.02;;;;;;;;;;5094150;28;20020;-82
2020/12/10 00:07:24;;;;;;;13.23;7.55;;;;;;;;;;5094035;28;20020;-84
2020/12/10 00:09:51;;;;;;;13.10;7.85;;;;;;;;;;5093768;28;20115;-84
2020/12/10 00:12:17;;;;;;;14.77;8.13;;;;;;;;;;5093811;28;20101;-83
2020/12/10 00:14:43;;;;;;;13.77;8.02;;;;;;;;;;5093905;28;20399;-84
2020/12/10 00:17:10;;;;;;;13.20;8.05;;;;;;;;;;5093706;28;20020;-82
2020/12/10 00:19:36;;;;;;;13.57;8.10;;;;;;;;;;5094087;28;20028;-83
2020/12/10 00:22:02;;;;;;;12.73;7.35;;;;;;;;;;5094042;28;20024;-82
2020/12/10 00:24:28;;;;;;;12.07;7.32;;;;;;;;;;5093936;28;20032;-84
2020/12/10 00:26:54;;;;;;;13.82;8.23;;;;;;;;;;5093595;28;20095;-84
2020/12/10 00:29:20;;;;;;;15.20;8.93;;;;;;;;;;5093473;28;20044;-83
2020/12/10 00:31:46;;;;;;;15.38;8.27;;;;;;;;;;5093577;28;20016;-83
2020/12/10 00:34:12;;;;;;;13.52;8.00;;;;;;;;;;5093654;28;20047;-83
2020/12/10 00:36:38;;;;;;;13.18;8.18;;;;;;;;;;5093085;28;20016;-84
2020/12/10 00:39:05;;;;;;;13.25;7.78;;;;;;;;;;5075312;28;20038;-84
2020/12/10 00:41:31;;;;;;;15.23;8.73;;;;;;;;;;5093707;28;20499;-84
2020/12/10 00:43:57;;;;;;;13.02;7.50;;;;;;;;;;5093369;28;20035;-82
2020/12/10 00:46:23;;;;;;;13.98;8.30;;;;;;;;;;5093405;28;20016;-82
2020/12/10 00:48:49;;;;;;;12.40;7.80;;;;;;;;;;5093138;28;20540;-83
2020/12/10 00:51:15;;;;;;;16.00;8.65;;;;;;;;;;5093425;28;20023;-81
2020/12/10 00:53:41;;;;;;;15.77;7.85;;;;;;;;;;5093267;28;20059;-83
2020/12/10 00:56:07;;;;;;;16.15;8.05;;;;;;;;;;5093275;28;20085;-83
2020/12/10 00:58:33;;;;;;;12.93;7.85;;;;;;;;;;5093192;28;20023;-81
2020/12/10 01:00:59;;;;;;;12.38;7.90;;;;;;;;;;5075180;28;20020;-84
2020/12/10 01:03:25;;;;;;;12.63;7.63;;;;;;;;;;5092984;28;20020;-83
2020/12/10 01:05:51;;;;;;;13.15;7.85;;;;;;;;;;5093139;28;20029;-84
2020/12/10 01:08:17;;;;;;;13.32;7.38;;;;;;;;;;5092310;28;20510;-84
2020/12/10 01:10:43;;;;;;;15.13;8.57;;;;;;;;;;5074729;28;20422;-84
2020/12/10 01:13:09;;;;;;;13.45;7.93;;;;;;;;;;5093061;28;20453;-84
2020/12/10 01:15:35;;;;;;;13.95;7.60;;;;;;;;;;5092902;28;20494;-83
2020/12/10 01:18:01;;;;;;;15.90;8.13;;;;;;;;;;5093155;28;20024;-82
2020/12/10 01:20:28;;;;;;;15.20;8.07;;;;;;;;;;5092893;28;20016;-83
2020/12/10 01:22:54;;;;;;;15.38;8.57;;;;;;;;;;5074763;28;20563;-83
2020/12/10 01:25:20;;;;;;;17.88;8.45;;;;;;;;;;5092785;28;20353;-84
2020/12/10 01:27:46;;;;;;;18.60;8.82;;;;;;;;;;5092335;28;20028;-81
2020/12/10 01:30:12;;;;;;;20.10;9.13;;;;;;;;;;5091509;28;20435;-83
2020/12/10 01:32:38;;;;;;;18.55;10.00;;;;;;;;;;5091505;28;20460;-83
2020/12/10 01:35:04;;;;;;;19.17;9.63;;;;;;;;;;5073584;28;20039;-82
2020/12/10 01:37:30;;;;;;;15.60;8.45;;;;;;;;;;5091585;28;20016;-82
2020/12/10 01:39:56;;;;;;;16.52;9.25;;;;;;;;;;5091409;28;20110;-84
2020/12/10 01:42:22;;;;;;;18.60;8.65;;;;;;;;;;5091682;28;20017;-83
2020/12/10 01:44:48;;;;;;;17.35;9.27;;;;;;;;;;5092776;28;20016;-83
2020/12/10 01:47:14;;;;;;;21.63;10.30;;;;;;;;;;5092740;28;20023;-83
2020/12/10 01:49:41;;;;;;;18.38;9.15;;;;;;;;;;5094702;28;20042;-83
2020/12/10 01:52:07;;;;;;;17.92;9.38;;;;;;;;;;5096879;28;20028;-83
2020/12/10 01:54:34;;;;;;;20.30;9.20;;;;;;;;;;5096782;28;20028;-76
2020/12/10 01:57:00;;;;;;;20.83;9.20;;;;;;;;;;5097024;28;20055;-83
2020/12/10 01:59:26;;;;;;;20.50;9.95;;;;;;;;;;5096626;28;20027;-83
2020/12/10 02:01:52;;;;;;;18.85;9.32;;;;;;;;;;5096646;28;20107;-83
2020/12/10 02:04:33;;;;;;;20.00;9.68;;;;;;;;;;5096585;28;20028;-81
2020/12/10 02:06:59;;;;;;;19.55;9.38;;;;;;;;;;5096689;28;20016;-83
2020/12/10 02:09:25;;;;;;;21.27;9.75;;;;;;;;;;5096342;28;20040;-83
2020/12/10 02:11:51;;;;;;;19.83;9.80;;;;;;;;;;5096268;28;20047;-83
2020/12/10 02:14:18;;;;;;;18.05;9.63;;;;;;;;;;5078291;28;20039;-84
2020/12/10 02:16:44;;;;;;;18.70;8.98;;;;;;;;;;5096395;28;20027;-82
2020/12/10 02:19:10;;;;;;;19.48;9.35;;;;;;;;;;5096386;28;20024;-83
2020/12/10 02:21:36;;;;;;;17.38;8.82;;;;;;;;;;5096232;28;20563;-83
2020/12/10 02:24:03;;;;;;;17.40;9.68;;;;;;;;;;5096451;28;20028;-83
2020/12/10 02:26:29;;;;;;;17.95;8.90;;;;;;;;;;5096379;28;20035;-81
2020/12/10 02:28:59;;;;;;;17.50;9.20;;;;;;;;;;5096058;28;20032;-82
2020/12/10 02:31:26;;;;;;;21.75;10.35;;;;;;;;;;5096058;28;20032;-83
2020/12/10 02:33:57;;;;;;;21.00;9.30;;;;;;;;;;5095900;28;20016;-81
2020/12/10 02:36:23;;;;;;;20.10;9.32;;;;;;;;;;5096040;28;20028;-84
2020/12/10 02:38:49;;;;;;;20.15;9.48;;;;;;;;;;5095892;28;20032;-83
2020/12/10 02:41:15;;;;;;;18.33;9.80;;;;;;;;;;5095713;28;20024;-82
2020/12/10 02:43:41;;;;;;;19.73;9.23;;;;;;;;;;5095861;28;20028;-83
2020/12/10 02:46:08;;;;;;;16.48;9.23;;;;;;;;;;5095834;28;20475;-83
2020/12/10 02:48:34;;;;;;;17.52;9.07;;;;;;;;;;5095753;28;20035;-79
2020/12/10 02:51:01;;;;;;;18.83;8.93;;;;;;;;;;5095910;28;20020;-83
2020/12/10 02:53:30;;;;;;;21.00;9.35;;;;;;;;;;5077499;28;20380;-83
2020/12/10 02:55:56;;;;;;;18.23;9.20;;;;;;;;;;5095583;28;20031;-82
2020/12/10 02:58:23;;;;;;;20.48;9.93;;;;;;;;;;5095555;28;20031;-82
2020/12/10 03:00:49;;;;;;;18.67;9.48;;;;;;;;;;5094920;28;20020;-83
2020/12/10 03:03:15;;;;;;;19.80;9.48;;;;;;;;;;5095546;28;20024;-83
2020/12/10 03:05:41;;;;;;;17.25;8.98;;;;;;;;;;5095460;28;20024;-83
2020/12/10 03:08:07;;;;;;;20.13;9.48;;;;;;;;;;5095328;28;20012;-83
2020/12/10 03:10:33;;;;;;;17.67;9.48;;;;;;;;;;5095266;28;20168;-84
2020/12/10 03:12:59;;;;;;;17.50;8.75;;;;;;;;;;5095482;28;20114;-82
2020/12/10 03:15:25;;;;;;;18.63;9.48;;;;;;;;;;5095241;28;20035;-82
2020/12/10 03:17:51;;;;;;;20.35;9.98;;;;;;;;;;5095207;28;20088;-83
2020/12/10 03:20:18;;;;;;;19.52;9.52;;;;;;;;;;5095203;28;20059;-82
2020/12/10 03:22:44;;;;;;;16.80;10.02;;;;;;;;;;5095155;28;20028;-79
2020/12/10 03:25:10;;;;;;;19.33;9.32;;;;;;;;;;5095058;28;20077;-83
2020/12/10 03:27:36;;;;;;;16.23;9.10;;;;;;;;;;5076863;28;20030;-82
2020/12/10 03:30:03;;;;;;;19.88;8.93;;;;;;;;;;5095072;28;20032;-83
2020/12/10 03:32:29;;;;;;;21.73;9.57;;;;;;;;;;5095084;28;20024;-83
2020/12/10 03:34:55;;;;;;;21.73;9.80;;;;;;;;;;5076781;28;20077;-83
2020/12/10 03:37:21;;;;;;;24.30;9.48;;;;;;;;;;5076675;28;20039;-83
2020/12/10 03:39:47;;;;;;;21.73;10.38;;;;;;;;;;5094757;28;20020;-83
2020/12/10 03:42:13;;;;;;;19.45;9.70;;;;;;;;;;5094801;28;20483;-83
2020/12/10 03:44:39;;;;;;;21.42;8.27;;;;;;;;;;5094732;28;20028;-82
2020/12/10 03:47:08;;;;;;;20.33;9.55;;;;;;;;;;5094602;28;20031;-81
2020/12/10 03:49:34;;;;;;;18.63;8.93;;;;;;;;;;5094566;28;20035;-79
2020/12/10 03:52:03;;;;;;;21.17;10.25;;;;;;;;;;5094401;28;20041;-77
2020/12/10 03:54:31;;;;;;;19.85;9.52;;;;;;;;;;5094633;28;20031;-81
2020/12/10 03:56:58;;;;;;;23.00;10.45;;;;;;;;;;5094379;28;20099;-82
2020/12/10 03:59:25;;;;;;;19.90;9.95;;;;;;;;;;5092689;28;20424;-78
2020/12/10 04:01:54;;;;;;;19.02;9.30;;;;;;;;;;5084878;28;20017;-77
2020/12/10 04:04:23;;;;;;;20.45;9.43;;;;;;;;;;5074020;28;20024;-80
2020/12/10 04:06:52;;;;;;;19.38;9.68;;;;;;;;;;5073917;28;20025;-82
2020/12/10 04:09:18;;;;;;;19.23;10.18;;;;;;;;;;5073863;28;20033;-80
2020/12/10 04:11:45;;;;;;;19.63;9.80;;;;;;;;;;5054953;28;20436;-81
2020/12/10 04:14:11;;;;;;;21.08;10.05;;;;;;;;;;5073704;28;20028;-79
2020/12/10 04:16:37;;;;;;;18.98;9.00;;;;;;;;;;5073285;28;20021;-79
2020/12/10 04:19:03;;;;;;;23.05;10.70;;;;;;;;;;5073854;28;20029;-79
2020/12/10 04:21:29;;;;;;;22.63;9.93;;;;;;;;;;5057111;28;20029;-75
2020/12/10 04:23:55;;;;;;;20.45;9.52;;;;;;;;;;5053926;28;20032;-81
2020/12/10 04:26:22;;;;;;;23.45;10.40;;;;;;;;;;5072681;28;20020;-82
2020/12/10 04:28:48;;;;;;;20.00;9.68;;;;;;;;;;5073151;28;20032;-81
2020/12/10 04:31:16;;;;;;;17.13;8.90;;;;;;;;;;5073596;28;20380;-82
2020/12/10 04:33:42;;;;;;;20.02;10.23;;;;;;;;;;5075509;28;20106;-81
2020/12/10 04:36:08;;;;;;;16.70;8.60;;;;;;;;;;5092435;28;20031;-79
2020/12/10 04:38:34;;;;;;;17.98;9.13;;;;;;;;;;5056734;28;20043;-81
2020/12/10 04:41:01;;;;;;;19.63;8.77;;;;;;;;;;5073038;28;20112;-78
2020/12/10 04:43:27;;;;;;;19.50;9.38;;;;;;;;;;5073070;28;20029;-81
2020/12/10 04:45:57;;;;;;;19.92;9.88;;;;;;;;;;5071626;28;20121;-83
2020/12/10 04:48:25;;;;;;;18.60;9.32;;;;;;;;;;5054481;28;20021;-81
2020/12/10 04:50:51;;;;;;;19.42;9.02;;;;;;;;;;5072026;28;20056;-82
2020/12/10 04:53:20;;;;;;;17.92;9.48;;;;;;;;;;5072017;28;20074;-79
2020/12/10 04:55:50;;;;;;;18.20;9.55;;;;;;;;;;5072113;28;20163;-72
2020/12/10 04:58:19;;;;;;;18.55;9.48;;;;;;;;;;5072823;28;20086;-72
2020/12/10 05:00:48;;;;;;;18.85;8.73;;;;;;;;;;5054499;28;20023;-71
2020/12/10 05:03:17;;;;;;;21.52;9.95;;;;;;;;;;5072143;28;20028;-71
2020/12/10 05:05:46;;;;;;;19.05;10.13;;;;;;;;;;5072457;28;20020;-72
2020/12/10 05:08:15;;;;;;;19.85;9.95;;;;;;;;;;5072382;28;20024;-72
2020/12/10 05:10:46;;;;;;;19.20;10.38;;;;;;;;;;5071900;28;20049;-71
2020/12/10 05:13:15;;;;;;;22.17;11.85;;;;;;;;;;5071942;28;20016;-71
2020/12/10 05:15:44;;;;;;;20.17;9.95;;;;;;;;;;5072542;28;20021;-82
2020/12/10 05:18:14;;;;;;;18.92;10.38;;;;;;;;;;5074751;28;20013;-82
2020/12/10 05:20:49;;;;;;;18.45;9.50;;;;;;;;;;5072436;28;20103;-81
2020/12/10 05:23:17;;;;;;;21.05;10.43;;;;;;;;;;5072462;28;20024;-81
2020/12/10 05:25:46;;;;;;;19.48;9.80;;;;;;;;;;5072017;28;20025;-78
2020/12/10 05:28:13;;;;;;;19.13;10.38;;;;;;;;;;5072109;28;20020;-79
2020/12/10 05:30:39;;;;;;;19.42;9.35;;;;;;;;;;5072111;28;20039;-82
2020/12/10 05:33:16;;;;;;;21.00;10.02;;;;;;;;;;5071786;28;20495;-79
2020/12/10 05:35:42;;;;;;;23.48;10.30;;;;;;;;;;5072523;28;20025;-79
2020/12/10 05:38:09;;;;;;;18.23;10.15;;;;;;;;;;5071097;28;20029;-79
2020/12/10 05:40:35;;;;;;;22.02;9.68;;;;;;;;;;5070670;28;20048;-78
2020/12/10 05:43:01;;;;;;;15.40;9.18;;;;;;;;;;5071053;28;20104;-82
2020/12/10 05:45:28;;;;;;;21.42;10.30;;;;;;;;;;5070908;28;20013;-81
2020/12/10 05:47:55;;;;;;;20.10;8.93;;;;;;;;;;5071397;28;20025;-82
2020/12/10 05:50:29;;;;;;;20.10;9.32;;;;;;;;;;5071273;28;20028;-77
2020/12/10 05:52:57;;;;;;;17.30;8.63;;;;;;;;;;5071648;28;20021;-81
2020/12/10 05:55:25;;;;;;;18.15;9.43;;;;;;;;;;5071831;28;20111;-82
2020/12/10 05:57:55;;;;;;;22.27;10.98;;;;;;;;;;5071988;28;20028;-81
2020/12/10 06:00:24;;;;;;;21.25;10.15;;;;;;;;;;5071816;28;20559;-80
2020/12/10 06:02:50;;;;;;;18.17;9.27;;;;;;;;;;5072039;28;20027;-79
2020/12/10 06:05:17;;;;;;;19.65;8.35;;;;;;;;;;5072211;28;20377;-79
2020/12/10 06:08:02;;;;;;;17.75;9.13;;;;;;;;;;5072243;28;20021;-80
2020/12/10 06:10:28;;;;;;;18.40;9.38;;;;;;;;;;5071636;28;20052;-82
2020/12/10 06:12:54;;;;;;;17.10;8.88;;;;;;;;;;5072020;28;20029;-82
2020/12/10 06:15:24;;;;;;;17.63;8.93;;;;;;;;;;5071861;28;20017;-80
2020/12/10 06:18:09;;;;;;;17.65;9.55;;;;;;;;;;5072192;28;20418;-82
2020/12/10 06:20:36;;;;;;;16.92;9.30;;;;;;;;;;5054224;28;20054;-79
2020/12/10 06:23:21;;;;;;;18.25;10.07;;;;;;;;;;5072111;28;20103;-81
2020/12/10 06:25:47;;;;;;;18.02;9.70;;;;;;;;;;5071820;28;20024;-82
2020/12/10 06:28:18;;;;;;;17.23;9.20;;;;;;;;;;5071803;28;20017;-81
2020/12/10 06:31:02;;;;;;;15.68;8.52;;;;;;;;;;5071675;28;20495;-82
2020/12/10 06:33:38;;;;;;;17.02;9.32;;;;;;;;;;5071520;28;20090;-82
2020/12/10 06:36:22;;;;;;;18.40;9.70;;;;;;;;;;5074614;28;20093;-82
2020/12/10 06:38:49;;;;;;;20.08;10.18;;;;;;;;;;5075726;28;20049;-81
2020/12/10 06:41:15;;;;;;;21.02;11.07;;;;;;;;;;5076006;28;20048;-82
2020/12/10 06:43:41;;;;;;;23.13;11.38;;;;;;;;;;5075429;28;20105;-82
2020/12/10 06:46:07;;;;;;;23.80;11.00;;;;;;;;;;5075154;28;20080;-80
2020/12/10 06:48:38;;;;;;;18.33;9.65;;;;;;;;;;5075361;28;20046;-81
2020/12/10 06:51:17;;;;;;;19.27;10.07;;;;;;;;;;5075220;28;20036;-76
2020/12/10 06:54:01;;;;;;;18.50;10.40;;;;;;;;;;5075105;28;20097;-81
2020/12/10 06:56:27;;;;;;;;;;;;;;;;;;5075894;28;20107;-80
2020/12/10 06:58:55;;;;;;;15.80;8.80;;;;;;;;;;5075479;28;20295;-82
2020/12/10 07:01:27;;;;;;;16.27;8.77;;;;;;;;;;5075396;28;20017;-81
2020/12/10 07:04:08;;;;;;;17.83;9.40;;;;;;;;;;5075373;28;20476;-81
2020/12/10 07:06:34;;;;;;;17.02;9.35;;;;;;;;;;5075314;28;20078;-78
2020/12/10 07:09:01;;;;;;;17.25;9.68;;;;;;;;;;5075366;28;20422;-81
2020/12/10 07:11:35;;;;;;;21.13;9.80;;;;;;;;;;5074994;28;20055;-80
2020/12/10 07:14:02;;;;;;;16.63;9.30;;;;;;;;;;5075467;28;20023;-81
2020/12/10 07:16:32;;;;;;;15.63;9.43;;;;;;;;;;5057146;28;20021;-82
2020/12/10 07:18:58;;;;;;;17.88;9.73;;;;;;;;;;5075084;28;20467;-81
2020/12/10 07:21:24;;;;;;;18.17;9.30;;;;;;;;;;5057063;28;20029;-82
2020/12/10 07:23:51;;;;;;;19.67;9.38;;;;;;;;;;5074962;28;20108;-82
2020/12/10 07:26:17;;;;;;;15.13;8.75;;;;;;;;;;5074937;28;20530;-81
2020/12/10 07:28:45;;;;;;;16.60;8.93;;;;;;;;;;5056850;28;20611;-80
2020/12/10 07:31:18;;;;;;;17.63;9.07;;;;;;;;;;5056904;28;20476;-81
2020/12/10 07:33:45;;;;;;;15.32;8.57;;;;;;;;;;5074766;28;20062;-82
2020/12/10 07:36:11;;;;;;;16.13;8.85;;;;;;;;;;5056736;28;20059;-82
2020/12/10 07:38:37;;;;;;;16.15;8.75;;;;;;;;;;5074790;28;20464;-81
2020/12/10 07:41:03;;;;;;;17.52;9.65;;;;;;;;;;5074912;28;20495;-81
2020/12/10 07:43:29;;;;;;;17.08;8.85;;;;;;;;;;5074876;28;20017;-81
2020/12/10 07:45:55;;;;;;;24.55;9.88;;;;;;;;;;5074666;28;20162;-79
2020/12/10 07:48:21;;;;;;;17.08;8.68;;;;;;;;;;5074735;28;20042;-80
2020/12/10 07:50:48;;;;;;;18.38;9.15;;;;;;;;;;5073925;28;20024;-81
2020/12/10 07:53:14;;;;;;;16.95;9.25;;;;;;;;;;5074007;28;20024;-80
2020/12/10 07:55:44;;;;;;;15.43;8.70;;;;;;;;;;5074122;28;20361;-82
2020/12/10 07:58:10;;;;;;;16.63;8.35;;;;;;;;;;5056373;28;20016;-82
2020/12/10 08:00:37;;;;;;;16.63;9.18;;;;;;;;;;5074247;28;20095;-82
2020/12/10 08:03:18;;;;;;;17.90;9.20;;;;;;;;;;5074236;28;20032;-80
2020/12/10 08:05:45;;;;;;;19.27;10.45;;;;;;;;;;5056426;28;20444;-81
2020/12/10 08:08:11;;;;;;;19.85;10.73;;;;;;;;;;5074055;28;20029;-81
2020/12/10 08:10:39;;;;;;;20.88;9.90;;;;;;;;;;5055595;28;20055;-81
2020/12/10 08:13:13;;;;;;;16.70;9.73;;;;;;;;;;5055603;28;20048;-81
2020/12/10 08:15:40;;;;;;;19.48;10.15;;;;;;;;;;5073609;28;20052;-81
2020/12/10 08:18:07;;;;;;;20.77;11.50;;;;;;;;;;5073906;28;20027;-80
2020/12/10 08:20:36;;;;;;;24.05;11.15;;;;;;;;;;5073975;28;20019;-79
2020/12/10 08:23:02;;;;;;;17.67;9.30;;;;;;;;;;5073872;28;20028;-79
2020/12/10 08:25:28;;;;;;;16.50;9.00;;;;;;;;;;5072624;28;20400;-82
2020/12/10 08:27:55;;;;;;;18.02;9.23;;;;;;;;;;5073278;28;20074;-81
2020/12/10 08:30:22;;;;;;;18.48;9.13;;;;;;;;;;5055208;28;20067;-80
2020/12/10 08:32:59;;;;;;;16.48;8.80;;;;;;;;;;5073209;28;20020;-80
2020/12/10 08:35:26;;;;;;;21.15;10.02;;;;;;;;;;5073193;28;20133;-81
2020/12/10 08:37:52;;;;;;;18.95;10.02;;;;;;;;;;5073407;28;20020;-81
2020/12/10 08:40:28;;;;;;;19.38;9.50;;;;;;;;;;5054934;28;20472;-81
2020/12/10 08:42:54;;;;;;;17.13;9.48;;;;;;;;;;5073287;28;20578;-81
2020/12/10 08:45:34;;;;;;;15.93;8.70;;;;;;;;;;5072959;28;20435;-82
2020/12/10 08:48:01;;;;;;;17.15;8.93;;;;;;;;;;5072989;28;20016;-80
2020/12/10 08:50:27;;;;;;;15.45;8.73;;;;;;;;;;5072666;28;20125;-81
2020/12/10 08:52:59;;;;;;;19.42;9.50;;;;;;;;;;5072706;28;20021;-79
2020/12/10 08:55:35;;;;;;;15.73;8.18;;;;;;;;;;5072689;28;20032;-82
2020/12/10 08:58:01;;;;;;;19.60;7.72;;;;;;;;;;5072419;28;20021;-81
2020/12/10 09:00:27;;;;;;;16.13;8.60;;;;;;;;;;5073003;28;20028;-81
2020/12/10 09:02:53;;;;;;;14.52;7.85;;;;;;;;;;5072944;28;20027;-81
2020/12/10 09:05:19;;;;;;;15.68;7.90;;;;;;;;;;5072970;28;20024;-81
2020/12/10 09:07:45;;;;;;;15.05;7.90;;;;;;;;;;5072954;28;20035;-81
2020/12/10 09:10:11;;;;;;;11.80;6.97;;;;;;;;;;5072778;28;20090;-81
2020/12/10 09:12:37;;;;;;;10.85;6.15;;;;;;;;;;5072886;28;20034;-81
2020/12/10 09:15:03;;;;;;;13.43;6.60;;;;;;;;;;5055051;28;20118;-80
2020/12/10 09:17:29;;;;;;;9.23;6.18;;;;;;;;;;5073063;28;20368;-82
2020/12/10 09:19:56;;;;;;;11.13;6.45;;;;;;;;;;5072815;28;20029;-79
2020/12/10 09:22:22;;;;;;;10.35;5.88;;;;;;;;;;5072714;28;20074;-82
2020/12/10 09:24:48;;;;;;;10.85;6.28;;;;;;;;;;5054425;28;20025;-81
2020/12/10 09:27:18;;;;;;;8.98;6.00;;;;;;;;;;5072181;28;20051;-81
2020/12/10 09:29:44;;;;;;;9.07;5.90;;;;;;;;;;5072049;28;20032;-81
2020/12/10 09:32:10;;;;;;;10.45;5.90;;;;;;;;;;5072325;28;20079;-81
2020/12/10 09:34:36;;;;;;;9.27;5.68;;;;;;;;;;5072077;28;20031;-81
2020/12/10 09:37:02;;;;;;;9.73;6.07;;;;;;;;;;5072366;28;20025;-80
2020/12/10 09:39:29;;;;;;;8.25;5.10;;;;;;;;;;5072102;28;20067;-80
2020/12/10 09:41:56;;;;;;;9.32;5.15;;;;;;;;;;5072596;28;20021;-78
2020/12/10 09:44:22;;;;;;;9.38;5.60;;;;;;;;;;5072541;28;20029;-80
2020/12/10 09:46:48;;;;;;;10.90;5.85;;;;;;;;;;5072493;28;20017;-80
2020/12/10 09:49:14;;;;;;;11.00;6.03;;;;;;;;;;5072453;28;20040;-80
2020/12/10 09:51:53;;;;;;;9.77;5.72;;;;;;;;;;5072179;28;20025;-82
2020/12/10 09:59:14;;;;;;;15.30;6.78;;;;;;;;;;5072396;28;20357;-80
2020/12/10 10:01:45;;;;;;;12.07;6.43;;;;;;;;;;5072325;28;20025;-82
2020/12/10 10:04:11;;;;;;;13.60;7.25;;;;;;;;;;5072307;28;20017;-82
2020/12/10 10:06:37;;;;;;;13.25;7.32;;;;;;;;;;5072413;28;20099;-79
2020/12/10 10:09:05;;;;;;;15.65;7.03;;;;;;;;;;5072527;28;20120;-82
2020/12/10 10:11:31;;;;;;;13.25;6.88;;;;;;;;;;5075522;28;20037;-80
2020/12/10 10:13:57;;;;;;;16.35;7.80;;;;;;;;;;5075960;28;20027;-81
2020/12/10 10:16:30;;;;;;;16.95;7.25;;;;;;;;;;5076318;28;20100;-77
2020/12/10 10:18:56;;;;;;;17.80;7.97;;;;;;;;;;5076145;28;20496;-81
2020/12/10 10:21:23;;;;;;;16.25;7.78;;;;;;;;;;5076027;28;20027;-82
2020/12/10 10:23:49;;;;;;;17.63;7.88;;;;;;;;;;5076292;28;20059;-80
2020/12/10 10:26:15;;;;;;;22.25;8.93;;;;;;;;;;5076085;28;20020;-81
2020/12/10 10:28:43;;;;;;;19.35;8.57;;;;;;;;;;5075838;28;20071;-76
2020/12/10 10:31:09;;;;;;;21.20;8.48;;;;;;;;;;5076198;28;20024;-81
2020/12/10 10:33:35;;;;;;;22.63;9.60;;;;;;;;;;5075802;28;20031;-80
2020/12/10 10:36:02;;;;;;;23.38;8.85;;;;;;;;;;5076038;28;20078;-81
2020/12/10 10:38:28;;;;;;;20.90;8.55;;;;;;;;;;5075714;28;20464;-81
2020/12/10 10:40:54;;;;;;;24.60;9.63;;;;;;;;;;5075523;28;20024;-78
2020/12/10 10:43:20;;;;;;;21.42;8.65;;;;;;;;;;5075097;28;20017;-82
2020/12/10 10:45:46;;;;;;;19.05;8.70;;;;;;;;;;5075275;28;20032;-80
2020/12/10 10:48:12;;;;;;;20.50;8.32;;;;;;;;;;5075327;28;20024;-81
2020/12/10 10:50:38;;;;;;;19.38;8.35;;;;;;;;;;5075510;28;20036;-81
2020/12/10 10:53:05;;;;;;;16.23;7.78;;;;;;;;;;5075570;28;20029;-77
2020/12/10 10:55:31;;;;;;;20.05;8.73;;;;;;;;;;5057824;28;20024;-81
2020/12/10 10:57:57;;;;;;;18.25;8.27;;;;;;;;;;5057364;28;20066;-81
2020/12/10 11:00:23;;;;;;;18.00;7.75;;;;;;;;;;5075310;28;20017;-81
2020/12/10 11:02:49;;;;;;;16.25;7.35;;;;;;;;;;5075395;28;20025;-81
2020/12/10 11:05:15;;;;;;;20.25;7.80;;;;;;;;;;5075344;28;20020;-80
2020/12/10 11:07:42;;;;;;;19.88;7.90;;;;;;;;;;5075356;28;20043;-81
2020/12/10 11:10:09;;;;;;;22.30;8.18;;;;;;;;;;5075077;28;20036;-81
2020/12/10 11:12:35;;;;;;;18.27;8.60;;;;;;;;;;5074811;28;20052;-80
2020/12/10 11:15:01;;;;;;;22.77;10.32;;;;;;;;;;5074840;28;20024;-81
2020/12/10 11:17:27;;;;;;;27.92;11.02;;;;;;;;;;5074988;28;20530;-81
2020/12/10 11:19:53;;;;;;;17.00;7.82;;;;;;;;;;5075144;28;20028;-79
2020/12/10 11:22:19;;;;;;;23.08;9.30;;;;;;;;;;5074841;28;20024;-80
2020/12/10 11:24:45;;;;;;;19.80;8.43;;;;;;;;;;5075071;28;20035;-81
2020/12/10 11:27:11;;;;;;;19.38;7.93;;;;;;;;;;5075148;28;20488;-79
2020/12/10 11:29:37;;;;;;;21.38;8.75;;;;;;;;;;5056884;28;20107;-79
2020/12/10 11:32:03;;;;;;;25.75;9.30;;;;;;;;;;5075168;28;20020;-81
2020/12/10 11:34:30;;;;;;;22.38;8.63;;;;;;;;;;5075051;28;20070;-78
2020/12/10 11:36:56;;;;;;;21.08;8.07;;;;;;;;;;5074798;28;20035;-80
2020/12/10 11:39:23;;;;;;;19.95;8.27;;;;;;;;;;5074789;28;20086;-76
2020/12/10 11:41:51;;;;;;;17.63;8.07;;;;;;;;;;5074703;28;20027;-81
2020/12/10 11:44:17;;;;;;;19.30;8.52;;;;;;;;;;5074626;28;20099;-79
2020/12/10 11:46:46;;;;;;;21.92;9.27;;;;;;;;;;5074645;28;20025;-80
2020/12/10 11:49:12;;;;;;;19.20;9.50;;;;;;;;;;5074450;28;20136;-81
2020/12/10 11:51:38;;;;;;;22.48;9.13;;;;;;;;;;5074477;28;20075;-78
2020/12/10 11:54:05;;;;;;;20.17;9.02;;;;;;;;;;5074484;28;20024;-80
2020/12/10 11:56:31;;;;;;;21.25;8.40;;;;;;;;;;5074493;28;20134;-81
2020/12/10 11:58:57;;;;;;;19.67;8.85;;;;;;;;;;5056373;28;20028;-80
2020/12/10 12:01:23;;;;;;;18.92;9.20;;;;;;;;;;5074254;28;20025;-81
2020/12/10 12:03:49;;;;;;;24.63;9.38;;;;;;;;;;5074152;28;20511;-81
2020/12/10 12:06:16;;;;;;;24.90;9.55;;;;;;;;;;5074434;28;20392;-78
2020/12/10 12:08:42;;;;;;;22.77;9.05;;;;;;;;;;5074154;28;20097;-81
2020/12/10 12:11:08;;;;;;;22.73;9.60;;;;;;;;;;5073924;28;20041;-80
2020/12/10 12:13:34;;;;;;;14.77;7.68;;;;;;;;;;5074318;28;20389;-79
2020/12/10 12:16:00;;;;;;;17.65;8.57;;;;;;;;;;5074331;28;20028;-81
2020/12/10 12:18:28;;;;;;;20.48;8.77;;;;;;;;;;5073916;28;20472;-80
2020/12/10 12:20:54;;;;;;;17.45;8.20;;;;;;;;;;5073847;28;20055;-81
2020/12/10 12:23:20;;;;;;;21.80;9.38;;;;;;;;;;5073812;28;20025;-81
2020/12/10 12:25:46;;;;;;;17.52;8.80;;;;;;;;;;5073749;28;20068;-80
2020/12/10 12:28:12;;;;;;;18.63;8.77;;;;;;;;;;5073941;28;20074;-80
2020/12/10 12:30:38;;;;;;;20.10;9.27;;;;;;;;;;5055670;28;20134;-80
2020/12/10 12:33:04;;;;;;;17.48;8.27;;;;;;;;;;5072977;28;20089;-79
2020/12/10 12:35:31;;;;;;;20.15;9.23;;;;;;;;;;5056207;28;20447;-80
2020/12/10 12:37:57;;;;;;;18.48;9.27;;;;;;;;;;5073506;28;20024;-80
2020/12/10 12:40:23;;;;;;;16.17;8.45;;;;;;;;;;5073466;28;20021;-80
2020/12/10 12:42:49;;;;;;;16.83;8.32;;;;;;;;;;5073443;28;20058;-80
2020/12/10 12:45:15;;;;;;;19.55;8.90;;;;;;;;;;5073553;28;20029;-81
2020/12/10 12:47:42;;;;;;;16.35;8.68;;;;;;;;;;5073406;28;20041;-81
2020/12/10 12:50:08;;;;;;;18.17;8.60;;;;;;;;;;5073343;28;20060;-81
2020/12/10 12:52:34;;;;;;;20.48;8.90;;;;;;;;;;5073306;28;20025;-81
2020/12/10 12:55:00;;;;;;;16.08;8.85;;;;;;;;;;5073578;28;20056;-80
2020/12/10 12:57:26;;;;;;;19.83;10.20;;;;;;;;;;5073517;28;20376;-81
2020/12/10 12:59:53;;;;;;;22.48;10.98;;;;;;;;;;5073210;28;20451;-81
2020/12/10 13:02:19;;;;;;;20.90;10.68;;;;;;;;;;5073185;28;20016;-80
2020/12/10 13:04:45;;;;;;;23.42;10.73;;;;;;;;;;5073132;28;20025;-81
2020/12/10 13:07:11;;;;;;;18.13;8.15;;;;;;;;;;5073076;28;20024;-80
2020/12/10 13:09:42;;;;;;;17.17;8.32;;;;;;;;;;5072911;28;20028;-81
2020/12/10 13:12:09;;;;;;;19.55;7.65;;;;;;;;;;5073147;28;20040;-79
2020/12/10 13:14:35;;;;;;;16.55;7.72;;;;;;;;;;5055108;28;20020;-81
2020/12/10 13:17:01;;;;;;;16.25;8.43;;;;;;;;;;5073161;28;20434;-81
2020/12/10 13:19:27;;;;;;;14.50;7.60;;;;;;;;;;5072964;28;20468;-81
2020/12/10 13:21:53;;;;;;;17.70;8.60;;;;;;;;;;5072841;28;20063;-81
2020/12/10 13:24:20;;;;;;;16.65;8.38;;;;;;;;;;5072812;28;20023;-80
2020/12/10 13:26:46;;;;;;;20.33;9.07;;;;;;;;;;5072798;28;20024;-81
2020/12/10 13:29:12;;;;;;;16.65;8.75;;;;;;;;;;5072766;28;20031;-81
2020/12/10 13:31:39;;;;;;;16.88;9.98;;;;;;;;;;5072789;28;20036;-80
2020/12/10 13:34:05;;;;;;;20.70;10.98;;;;;;;;;;5054704;28;20029;-79
2020/12/10 13:36:32;;;;;;;20.08;11.15;;;;;;;;;;5073000;28;20405;-81
2020/12/10 13:38:58;;;;;;;20.30;10.68;;;;;;;;;;5072902;28;20055;-81
2020/12/10 13:41:24;;;;;;;22.98;9.60;;;;;;;;;;5072600;28;20036;-81
2020/12/10 13:43:51;;;;;;;19.85;10.05;;;;;;;;;;5072431;28;20072;-78
2020/12/10 13:46:17;;;;;;;17.60;9.20;;;;;;;;;;5072545;28;20029;-81
2020/12/10 13:48:43;;;;;;;23.17;9.55;;;;;;;;;;5072623;28;20027;-81
2020/12/10 13:51:10;;;;;;;17.90;8.95;;;;;;;;;;5072491;28;20056;-80
2020/12/10 13:53:36;;;;;;;18.30;9.65;;;;;;;;;;5072555;28;20025;-80
2020/12/10 13:56:02;;;;;;;20.50;9.30;;;;;;;;;;5072700;28;20017;-81
2020/12/10 13:58:28;;;;;;;21.38;9.45;;;;;;;;;;5072390;28;20016;-80
2020/12/10 14:00:54;;;;;;;18.67;9.15;;;;;;;;;;5072413;28;20112;-80
2020/12/10 14:03:20;;;;;;;19.23;9.00;;;;;;;;;;5072494;28;20066;-78
2020/12/10 14:05:46;;;;;;;18.98;9.95;;;;;;;;;;5072362;28;20024;-81
2020/12/10 14:08:12;;;;;;;17.33;8.45;;;;;;;;;;5072336;28;20020;-79
2020/12/10 14:10:38;;;;;;;16.77;8.88;;;;;;;;;;5071955;28;20045;-80
2020/12/10 14:13:04;;;;;;;17.73;8.63;;;;;;;;;;5072287;28;20095;-79
2020/12/10 14:15:31;;;;;;;15.52;8.85;;;;;;;;;;5072558;28;20031;-81
2020/12/10 14:17:57;;;;;;;14.30;7.75;;;;;;;;;;5072260;28;20031;-80
2020/12/10 14:20:23;;;;;;;17.35;8.65;;;;;;;;;;5072289;28;20025;-80
2020/12/10 14:22:50;;;;;;;15.95;8.52;;;;;;;;;;5072298;28;20024;-79
2020/12/10 14:25:16;;;;;;;18.55;9.10;;;;;;;;;;5072171;28;20033;-80
2020/12/10 14:27:42;;;;;;;16.83;8.93;;;;;;;;;;5072261;28;20503;-80
2020/12/10 14:30:09;;;;;;;19.15;8.40;;;;;;;;;;5072141;28;20036;-81
2020/12/10 14:32:35;;;;;;;20.52;9.15;;;;;;;;;;5072012;28;20025;-79